Time;durP1;ratioP1;P1;durP2;ratioP2;P2;SDS_P1;SDS_P2;PMS_P1;PMS_P2;Temp;Humidity;BMP_temperature;BMP_pressure;BME280_temperature;BME280_humidity;BME280_pressure;Samples;Min_cycle;Max_cycle;Signal;HPM_P1;HPM_P2
2023/05/26 00:02:19;;;;;;;24.88;4.50;;;;;;;10.43;79.69;103026.44;4997396;28;20027;-71
2023/05/26 00:04:44;;;;;;;23.05;4.82;;;;;;;10.33;79.80;103031.72;4997572;28;20088;-71
2023/05/26 00:07:10;;;;;;;14.35;3.92;;;;;;;10.41;80.00;103039.53;4997587;28;20058;-71
2023/05/26 00:09:36;;;;;;;26.25;4.53;;;;;;;10.39;79.66;103033.44;4997731;28;20069;-71
2023/05/26 00:12:01;;;;;;;24.90;4.15;;;;;;;10.26;80.09;103032.59;4997712;28;20376;-71
2023/05/26 00:14:27;;;;;;;36.67;5.40;;;;;;;10.24;80.34;103038.69;4997874;28;20038;-71
2023/05/26 00:16:55;;;;;;;22.02;4.63;;;;;;;10.27;79.80;103038.69;4998869;28;20035;-71
2023/05/26 00:19:21;;;;;;;24.60;3.80;;;;;;;10.23;79.40;103029.97;5001317;28;20049;-71
2023/05/26 00:21:46;;;;;;;26.80;4.30;;;;;;;10.19;79.62;103036.13;5000514;28;20280;-71
2023/05/26 00:24:12;;;;;;;22.35;4.43;;;;;;;10.08;79.33;103037.91;5001818;28;20199;-71
2023/05/26 00:26:37;;;;;;;16.02;3.83;;;;;;;10.03;79.79;103040.53;5001385;28;20050;-71
2023/05/26 00:29:03;;;;;;;31.80;4.53;;;;;;;9.98;80.07;103029.19;5001135;28;20038;-71
2023/05/26 00:31:29;;;;;;;22.52;3.88;;;;;;;10.02;79.57;103040.53;5001666;28;20372;-71
2023/05/26 00:33:55;;;;;;;30.65;4.93;;;;;;;10.00;79.81;103037.91;5000696;28;20109;-71
2023/05/26 00:36:20;;;;;;;21.95;4.75;;;;;;;9.98;79.79;103051.00;4983780;28;20037;-71
2023/05/26 00:38:46;;;;;;;27.60;4.60;;;;;;;9.97;79.29;103045.78;5000867;28;20069;-71
2023/05/26 00:41:11;;;;;;;25.00;3.83;;;;;;;9.92;79.33;103055.41;5000848;28;20438;-71
2023/05/26 00:43:36;;;;;;;26.42;4.78;;;;;;;9.92;79.48;103051.03;5000979;28;20053;-71
2023/05/26 00:46:02;;;;;;;21.70;3.95;;;;;;;9.90;79.61;103046.69;5000537;28;20121;-71
2023/05/26 00:48:27;;;;;;;21.15;4.40;;;;;;;9.87;79.68;103049.31;5001132;28;20042;-71
2023/05/26 00:50:53;;;;;;;28.17;4.50;;;;;;;9.94;79.35;103059.75;5000506;28;20334;-71
2023/05/26 00:53:19;;;;;;;21.77;4.40;;;;;;;9.87;79.44;103044.94;5001083;28;20068;-71
2023/05/26 00:55:50;;;;;;;21.52;4.25;;;;;;;9.83;79.70;103043.19;5000639;28;20057;-71
2023/05/26 00:58:16;;;;;;;21.13;3.60;;;;;;;9.81;79.73;103052.81;4982700;28;20337;-71
2023/05/26 01:00:42;;;;;;;29.20;4.40;;;;;;;9.89;79.33;103042.31;5000507;28;20033;-71
2023/05/26 01:03:11;;;;;;;21.15;4.88;;;;;;;9.91;78.81;103044.03;5000465;28;20045;-71
2023/05/26 01:05:36;;;;;;;;;;;;;;;9.91;78.58;103044.03;5001162;28;20386;-71
2023/05/26 01:08:02;;;;;;;23.93;3.90;;;;;;;9.82;78.70;103048.44;5000244;28;19968;-71
2023/05/26 01:10:31;;;;;;;23.40;4.85;;;;;;;9.82;78.68;103043.19;5000454;28;20305;-71
2023/05/26 01:12:58;;;;;;;;;;;;;;;9.86;78.45;103047.53;5000567;28;20042;-71
2023/05/26 01:15:32;;;;;;;30.40;3.70;;;;;;;9.72;78.51;103050.22;5000448;28;19914;-71
2023/05/26 01:18:28;;;;;;;21.13;4.22;;;;;;;9.70;78.57;103047.59;4999860;28;20046;-71
2023/05/26 01:21:05;;;;;;;22.63;4.07;;;;;;;9.65;78.93;103051.97;4998516;28;20311;-71
2023/05/26 01:24:04;;;;;;;18.80;3.67;;;;;;;9.56;79.14;103051.97;5000273;28;20186;-71
2023/05/26 01:26:42;;;;;;;18.75;3.65;;;;;;;9.59;79.72;103052.84;5000374;28;20022;-71
2023/05/26 01:29:13;;;;;;;32.42;4.88;;;;;;;9.57;79.20;103051.97;4999767;28;20385;-71
2023/05/26 01:31:39;;;;;;;25.98;4.25;;;;;;;9.50;79.64;103055.47;5000161;28;20034;-71
2023/05/26 01:34:05;;;;;;;23.73;5.40;;;;;;;9.46;79.33;103050.22;4999901;28;20307;-71
2023/05/26 01:36:31;;;;;;;26.35;3.92;;;;;;;9.52;79.54;103047.63;5000597;28;20253;-71
2023/05/26 01:38:56;;;;;;;26.13;4.43;;;;;;;9.64;79.77;103054.56;4999752;28;20403;-71
2023/05/26 01:41:31;;;;;;;21.25;4.22;;;;;;;9.56;79.71;103044.97;5000246;28;20041;-71
2023/05/26 01:44:15;;;;;;;18.30;3.55;;;;;;;9.49;79.53;103045.88;4999536;28;20064;-71
2023/05/26 01:46:51;;;;;;;22.58;4.30;;;;;;;9.54;79.52;103054.59;4982390;28;20034;-71
2023/05/26 01:49:19;;;;;;;22.20;4.45;;;;;;;9.51;79.83;103061.56;5000346;28;20058;-71
2023/05/26 01:51:56;;;;;;;23.27;4.22;;;;;;;9.55;79.61;103048.50;5000052;28;20037;-71
2023/05/26 01:54:25;;;;;;;16.58;3.83;;;;;;;9.53;79.37;103057.19;4999873;28;20345;-71
2023/05/26 01:56:52;;;;;;;20.60;4.03;;;;;;;9.37;80.43;103057.22;4999347;28;20201;-71
2023/05/26 01:59:20;;;;;;;11.80;3.25;;;;;;;9.43;80.01;103065.94;5000118;28;20046;-71
2023/05/26 02:01:46;;;;;;;22.55;4.70;;;;;;;9.45;79.96;103067.66;4999627;28;20034;-71
2023/05/26 02:04:12;;;;;;;18.73;3.95;;;;;;;9.44;79.84;103062.44;4999708;28;20101;-71
2023/05/26 02:06:38;;;;;;;24.00;3.90;;;;;;;9.51;79.53;103067.66;4999616;28;20269;-71
2023/05/26 02:09:05;;;;;;;26.25;4.43;;;;;;;9.48;79.89;103070.28;4999284;28;20381;-71
2023/05/26 02:11:31;;;;;;;18.52;3.65;;;;;;;9.47;79.89;103067.69;4999250;28;20049;-71
2023/05/26 02:13:57;;;;;;;25.83;3.80;;;;;;;9.39;80.03;103071.16;4999163;28;20065;-71
2023/05/26 02:16:22;;;;;;;19.60;3.63;;;;;;;9.36;80.19;103065.91;4999499;28;20249;-71
2023/05/26 02:18:48;;;;;;;26.08;4.53;;;;;;;9.33;80.16;103071.19;4999052;28;20429;-71
2023/05/26 02:21:15;;;;;;;25.05;4.40;;;;;;;9.35;79.99;103071.16;4999654;28;20126;-71
2023/05/26 02:23:42;;;;;;;21.70;4.13;;;;;;;9.36;80.17;103079.00;4999270;28;20337;-71
2023/05/26 02:26:08;;;;;;;20.98;3.45;;;;;;;9.38;80.00;103079.88;4998763;28;20069;-71
2023/05/26 02:28:33;;;;;;;23.88;4.10;;;;;;;9.36;80.34;103083.38;4999408;28;20058;-71
2023/05/26 02:30:58;;;;;;;29.55;4.63;;;;;;;9.30;80.38;103086.00;4998429;28;20511;-71
2023/05/26 02:33:24;;;;;;;27.42;3.42;;;;;;;9.19;80.90;103079.00;4999150;28;20138;-71
2023/05/26 02:35:49;;;;;;;13.60;3.08;;;;;;;9.30;80.87;103079.00;4998524;28;20042;-71
2023/05/26 02:38:15;;;;;;;39.92;7.60;;;;;;;9.35;80.51;103073.75;4999287;28;20275;-71
2023/05/26 02:40:40;;;;;;;18.95;3.25;;;;;;;9.29;80.43;103079.00;4998017;28;20229;-71
2023/05/26 02:43:06;;;;;;;27.58;4.25;;;;;;;9.27;80.54;103081.63;4998359;28;20034;-71
2023/05/26 02:45:31;;;;;;;24.45;4.13;;;;;;;9.26;80.46;103072.03;4998869;28;20089;-71
2023/05/26 02:47:56;;;;;;;17.88;3.30;;;;;;;9.25;80.68;103072.03;4998546;28;20117;-71
2023/05/26 02:50:22;;;;;;;24.48;4.40;;;;;;;9.26;81.04;103077.28;4981261;28;20045;-71
2023/05/26 02:52:47;;;;;;;24.65;4.38;;;;;;;9.26;80.88;103074.66;4998590;28;20353;-71
2023/05/26 02:55:13;;;;;;;24.23;4.60;;;;;;;9.28;80.79;103083.38;4998988;28;20112;-71
2023/05/26 02:57:39;;;;;;;23.20;4.10;;;;;;;9.25;80.67;103087.72;4998487;28;20113;-71
2023/05/26 03:00:11;;;;;;;24.73;4.38;;;;;;;9.26;80.81;103085.13;4998572;28;20034;-71
2023/05/26 03:02:37;;;;;;;31.90;4.80;;;;;;;9.23;80.54;103082.50;4999358;28;20053;-71
2023/05/26 03:05:04;;;;;;;28.23;5.10;;;;;;;9.18;80.94;103082.47;4990258;28;20097;-71
2023/05/26 03:07:29;;;;;;;25.27;4.80;;;;;;;9.18;81.20;103079.84;4979254;28;20038;-71
2023/05/26 03:09:54;;;;;;;16.63;3.83;;;;;;;9.25;80.90;103085.09;4978538;28;20066;-71
2023/05/26 03:12:20;;;;;;;18.60;4.07;;;;;;;9.28;80.72;103082.47;4979068;28;20051;-71
2023/05/26 03:14:45;;;;;;;33.33;4.93;;;;;;;9.20;80.65;103085.09;4978862;28;20291;-71
2023/05/26 03:17:11;;;;;;;28.85;3.90;;;;;;;9.19;80.71;103075.53;4961323;28;20039;-71
2023/05/26 03:19:36;;;;;;;19.73;4.53;;;;;;;9.16;80.82;103076.38;4979008;28;20050;-71
2023/05/26 03:22:02;;;;;;;23.67;4.55;;;;;;;9.16;81.24;103078.13;4978066;28;20089;-71
2023/05/26 03:24:27;;;;;;;19.15;3.95;;;;;;;9.13;80.98;103086.84;4978958;28;20089;-71
2023/05/26 03:26:52;;;;;;;22.38;4.30;;;;;;;9.09;81.28;103078.97;4978235;28;20068;-71
2023/05/26 03:29:18;;;;;;;20.52;3.67;;;;;;;9.15;81.31;103082.50;4978834;28;20030;-71
2023/05/26 03:31:43;;;;;;;30.55;4.78;;;;;;;9.11;80.90;103082.47;4978318;28;20038;-71
2023/05/26 03:34:09;;;;;;;18.98;3.97;;;;;;;9.10;81.31;103083.34;4978359;28;20035;-71
2023/05/26 03:36:36;;;;;;;25.58;4.47;;;;;;;9.06;81.63;103087.72;4978694;28;20042;-71
2023/05/26 03:39:03;;;;;;;30.10;4.72;;;;;;;8.99;81.67;103092.03;4977838;28;20042;-71
2023/05/26 03:41:29;;;;;;;24.60;4.82;;;;;;;9.05;81.83;103091.19;4978702;28;20043;-71
2023/05/26 03:43:54;;;;;;;31.77;4.35;;;;;;;9.13;81.55;103096.41;4978159;28;20423;-71
2023/05/26 03:46:20;;;;;;;22.42;4.07;;;;;;;9.11;81.58;103090.31;4978924;28;20062;-71
2023/05/26 03:48:45;;;;;;;25.58;3.83;;;;;;;9.04;81.51;103089.44;4978487;28;20069;-71
2023/05/26 03:51:11;;;;;;;22.10;4.00;;;;;;;9.10;81.75;103091.19;4980042;28;20074;-71
2023/05/26 03:53:37;;;;;;;20.00;3.33;;;;;;;9.12;81.65;103092.94;4985128;28;20030;-71
2023/05/26 03:56:03;;;;;;;25.55;4.97;;;;;;;9.13;81.56;103093.78;4984230;28;20027;-71
2023/05/26 03:58:28;;;;;;;23.08;4.10;;;;;;;9.10;81.86;103096.44;4985172;28;20234;-71
2023/05/26 04:00:56;;;;;;;12.02;2.83;;;;;;;9.01;82.07;103103.38;4984445;28;20034;-71
2023/05/26 04:03:21;;;;;;;27.58;4.38;;;;;;;9.03;81.92;103099.00;4985064;28;20045;-71
2023/05/26 04:05:47;;;;;;;27.75;4.57;;;;;;;9.10;81.80;103099.03;4984353;28;20042;-71
2023/05/26 04:08:13;;;;;;;19.50;3.90;;;;;;;9.17;81.68;103103.41;4984984;28;20157;-71
2023/05/26 04:10:38;;;;;;;27.80;4.40;;;;;;;9.11;81.52;103100.75;4985807;28;20050;-71
2023/05/26 04:13:04;;;;;;;21.75;3.65;;;;;;;9.08;81.90;103104.25;4984277;28;20041;-71
2023/05/26 04:15:29;;;;;;;25.08;4.40;;;;;;;9.07;81.73;103099.88;4985044;28;20069;-71
2023/05/26 04:17:55;;;;;;;26.73;4.88;;;;;;;9.10;81.81;103104.28;4984137;28;20342;-71
2023/05/26 04:20:20;;;;;;;26.17;4.35;;;;;;;9.11;81.74;103096.41;4985113;28;20066;-71
2023/05/26 04:22:46;;;;;;;20.95;4.07;;;;;;;9.11;81.94;103104.25;4984479;28;20085;-71
2023/05/26 04:25:12;;;;;;;19.92;4.13;;;;;;;9.11;82.16;103101.63;4984447;28;20043;-71
2023/05/26 04:27:38;;;;;;;20.05;3.60;;;;;;;9.11;81.81;103108.59;4984441;28;20035;-71
2023/05/26 04:30:05;;;;;;;20.08;4.32;;;;;;;9.13;81.93;103104.25;4994927;28;20066;-71
2023/05/26 04:32:33;;;;;;;30.52;4.90;;;;;;;9.14;81.73;103106.88;5004478;28;20337;-71
2023/05/26 04:35:00;;;;;;;24.67;4.50;;;;;;;9.17;81.94;103106.88;5003784;28;20362;-71
2023/05/26 04:37:26;;;;;;;22.20;5.68;;;;;;;9.22;81.51;103105.16;5003971;28;20061;-71
2023/05/26 04:39:51;;;;;;;20.02;3.97;;;;;;;9.22;81.58;103104.25;5003728;28;20042;-71
2023/05/26 04:42:19;;;;;;;26.42;4.63;;;;;;;9.25;81.59;103106.88;5003894;28;20064;-71
2023/05/26 04:44:45;;;;;;;33.15;4.78;;;;;;;9.22;81.59;103110.38;5003668;28;20034;-71
2023/05/26 04:47:11;;;;;;;22.85;4.05;;;;;;;9.30;81.31;103109.53;5003598;28;20101;-71
2023/05/26 04:49:37;;;;;;;17.55;3.38;;;;;;;9.25;81.47;103121.72;5004702;28;20102;-71
2023/05/26 04:52:03;;;;;;;29.90;5.22;;;;;;;9.25;81.49;103122.56;5003384;28;20041;-71
2023/05/26 04:54:29;;;;;;;30.10;4.18;;;;;;;9.31;81.21;103126.94;5003835;28;20359;-71
2023/05/26 04:56:55;;;;;;;22.85;3.70;;;;;;;9.28;81.13;103122.59;5003554;28;20092;-71
2023/05/26 04:59:23;;;;;;;29.02;4.78;;;;;;;9.30;80.55;103117.38;5003893;28;20042;-71
2023/05/26 05:01:49;;;;;;;26.88;4.63;;;;;;;9.37;80.60;103124.34;5003674;28;20396;-71
2023/05/26 05:04:15;;;;;;;25.27;4.15;;;;;;;9.36;80.64;103139.16;5000137;28;20038;-71
2023/05/26 05:06:41;;;;;;;29.75;4.40;;;;;;;9.38;80.30;103142.63;5000703;28;20045;-71
2023/05/26 05:09:07;;;;;;;29.05;4.57;;;;;;;9.35;80.63;103137.41;5000136;28;20062;-71
2023/05/26 05:11:33;;;;;;;25.30;4.47;;;;;;;9.41;80.97;103147.00;4983222;28;20038;-71
2023/05/26 05:13:58;;;;;;;32.10;4.70;;;;;;;9.44;81.03;103146.13;5000339;28;20038;-71
2023/05/26 05:16:24;;;;;;;25.45;4.25;;;;;;;9.45;80.94;103143.53;5000325;28;20277;-71
2023/05/26 05:18:49;;;;;;;26.73;4.57;;;;;;;9.53;80.78;103157.50;5000195;28;20052;-71
2023/05/26 05:21:16;;;;;;;33.75;4.70;;;;;;;9.57;80.41;103151.38;5000032;28;20050;-71
2023/05/26 05:23:41;;;;;;;23.58;4.20;;;;;;;9.52;80.64;103149.63;4997638;28;20417;-71
2023/05/26 05:26:06;;;;;;;26.45;4.38;;;;;;;9.55;80.06;103147.00;4998638;28;20047;-71
2023/05/26 05:28:32;;;;;;;21.83;4.90;;;;;;;9.52;80.73;103160.09;4998876;28;20366;-71
2023/05/26 05:30:57;;;;;;;33.95;4.80;;;;;;;9.56;80.59;103154.00;4998120;28;20041;-71
2023/05/26 05:33:23;;;;;;;30.30;4.53;;;;;;;9.61;80.34;103152.25;4998862;28;20058;-71
2023/05/26 05:35:48;;;;;;;24.77;4.32;;;;;;;9.68;79.91;103171.44;4998274;28;20041;-71
2023/05/26 05:38:14;;;;;;;33.70;4.90;;;;;;;9.61;79.91;103167.94;4998556;28;20034;-71
2023/05/26 05:40:39;;;;;;;29.48;4.97;;;;;;;9.68;80.03;103167.09;4999171;28;20034;-71
2023/05/26 05:43:05;;;;;;;27.52;4.95;;;;;;;9.72;80.22;103168.81;4997839;28;20046;-71
2023/05/26 05:45:30;;;;;;;25.90;4.18;;;;;;;9.76;79.44;103167.94;4999160;28;20054;-71
2023/05/26 05:47:55;;;;;;;34.60;4.65;;;;;;;9.75;79.74;103168.84;4999122;28;20127;-71
2023/05/26 05:50:21;;;;;;;25.45;4.82;;;;;;;9.75;79.19;103168.84;4999593;28;20034;-71
2023/05/26 05:52:46;;;;;;;28.13;4.82;;;;;;;9.80;79.77;103176.66;4999498;28;20110;-71
2023/05/26 05:55:12;;;;;;;21.70;4.35;;;;;;;9.84;79.56;103182.78;5000409;28;20412;-71
2023/05/26 05:57:37;;;;;;;25.48;4.30;;;;;;;9.86;78.96;103179.31;4999859;28;20038;-71
2023/05/26 06:00:09;;;;;;;32.70;5.00;;;;;;;9.84;79.67;103172.31;4999391;28;20393;-71
2023/05/26 06:02:35;;;;;;;34.60;5.25;;;;;;;9.83;79.58;103178.44;4999142;28;20080;-71
2023/05/26 06:05:00;;;;;;;25.95;4.28;;;;;;;9.88;79.81;103172.31;4998184;28;20101;-71
2023/05/26 06:07:26;;;;;;;29.50;5.10;;;;;;;9.88;79.17;103182.78;4997861;28;20049;-71
2023/05/26 06:09:51;;;;;;;32.17;3.95;;;;;;;9.95;79.00;103181.91;4998603;28;20058;-71
2023/05/26 06:12:17;;;;;;;35.42;6.72;;;;;;;10.00;79.46;103179.28;4999154;28;20101;-71
2023/05/26 06:14:42;;;;;;;25.77;4.28;;;;;;;10.10;78.44;103167.94;4994121;28;20042;-71
2023/05/26 06:17:07;;;;;;;28.02;4.65;;;;;;;10.10;78.39;103174.91;4996456;28;20054;-71
2023/05/26 06:19:33;;;;;;;22.58;4.07;;;;;;;10.13;78.05;103182.75;4999098;28;20053;-71
2023/05/26 06:21:58;;;;;;;29.40;4.35;;;;;;;10.13;77.89;103181.03;4998551;28;20046;-71
2023/05/26 06:24:23;;;;;;;23.33;3.95;;;;;;;10.14;77.71;103179.28;4998845;28;20030;-71
2023/05/26 06:26:49;;;;;;;22.42;4.38;;;;;;;10.20;77.33;103187.09;4998181;28;20046;-71
2023/05/26 06:29:16;;;;;;;21.27;3.72;;;;;;;10.18;76.78;103187.09;4999361;28;20068;-71
2023/05/26 06:31:43;;;;;;;15.65;3.40;;;;;;;10.20;76.81;103184.47;4999132;28;20217;-71
2023/05/26 06:34:08;;;;;;;26.55;3.83;;;;;;;10.21;77.04;103185.38;4997375;28;20054;-71
2023/05/26 06:36:34;;;;;;;16.67;3.88;;;;;;;10.30;77.41;103185.38;4998137;28;20034;-71
2023/05/26 06:38:59;;;;;;;25.35;4.10;;;;;;;10.37;77.52;103187.13;4997309;28;20045;-71
2023/05/26 06:41:26;;;;;;;24.13;4.50;;;;;;;10.42;76.70;103184.47;4997434;28;20049;-71
2023/05/26 06:43:52;;;;;;;24.15;4.20;;;;;;;10.46;76.81;103196.69;4997238;28;20038;-71
2023/05/26 06:46:18;;;;;;;24.15;3.80;;;;;;;10.52;76.05;103194.06;4997650;28;20128;-71
2023/05/26 06:48:43;;;;;;;25.60;4.45;;;;;;;10.54;76.45;103192.31;4998128;28;20038;-71
2023/05/26 06:51:09;;;;;;;18.75;3.30;;;;;;;10.61;75.57;103191.41;4997714;28;20302;-71
2023/05/26 06:53:37;;;;;;;24.73;4.32;;;;;;;10.63;75.29;103192.28;4998098;28;20030;-71
2023/05/26 06:56:02;;;;;;;31.75;5.13;;;;;;;10.59;75.54;103194.91;4997155;28;20097;-71
2023/05/26 06:58:28;;;;;;;30.13;4.22;;;;;;;10.69;75.81;103199.25;4998478;28;20169;-72
2023/05/26 07:01:01;;;;;;;22.45;4.15;;;;;;;10.65;75.45;103197.53;4983200;28;20089;-72
2023/05/26 07:03:27;;;;;;;19.58;3.85;;;;;;;10.60;74.94;103197.53;4995730;28;20129;-72
2023/05/26 07:05:54;;;;;;;24.38;4.05;;;;;;;10.62;75.39;103200.13;4976874;28;20333;-72
2023/05/26 07:08:19;;;;;;;24.48;3.40;;;;;;;10.66;75.14;103194.00;4994447;28;20121;-72
2023/05/26 07:10:45;;;;;;;21.67;3.85;;;;;;;10.68;75.17;103211.47;4994704;28;20058;-72
2023/05/26 07:13:10;;;;;;;29.42;4.00;;;;;;;10.73;74.98;103204.50;5000602;28;20081;-71
2023/05/26 07:15:36;;;;;;;24.13;4.13;;;;;;;10.76;74.64;103206.22;5003652;28;20034;-71
2023/05/26 07:18:01;;;;;;;20.67;4.15;;;;;;;10.78;75.08;103207.06;5004421;28;20034;-71
2023/05/26 07:20:26;;;;;;;23.67;4.05;;;;;;;10.89;75.25;103202.66;4995703;28;20153;-71
2023/05/26 07:22:52;;;;;;;31.02;5.45;;;;;;;10.98;74.75;103193.88;4990137;28;20038;-72
2023/05/26 07:25:17;;;;;;;27.85;4.00;;;;;;;11.05;74.24;103200.84;4993237;28;20073;-72
2023/05/26 07:27:43;;;;;;;23.63;5.13;;;;;;;11.02;72.62;103200.84;4992524;28;20333;-72
2023/05/26 07:30:08;;;;;;;21.35;4.47;;;;;;;11.11;72.62;103199.94;4991558;28;20053;-72
2023/05/26 07:32:34;;;;;;;18.55;4.10;;;;;;;11.15;71.51;103204.28;4993018;28;20271;-71
2023/05/26 07:34:59;;;;;;;21.52;3.50;;;;;;;11.24;71.53;103191.13;4994411;28;20053;-71
2023/05/26 07:37:25;;;;;;;18.77;3.50;;;;;;;11.26;71.89;103192.00;4992545;28;20080;-72
2023/05/26 07:39:50;;;;;;;20.63;3.38;;;;;;;11.28;69.97;103194.63;4998900;28;20037;-72
2023/05/26 07:42:15;;;;;;;19.90;3.50;;;;;;;11.36;70.74;103194.56;5001252;28;20263;-72
2023/05/26 07:44:41;;;;;;;16.80;3.53;;;;;;;11.37;70.47;103188.41;4996860;28;20057;-72
2023/05/26 07:47:06;;;;;;;24.27;4.53;;;;;;;11.46;70.69;103190.97;4995079;28;20291;-72
2023/05/26 07:49:32;;;;;;;11.48;3.30;;;;;;;11.48;70.08;103192.72;4995585;28;20105;-72
2023/05/26 07:51:57;;;;;;;30.75;3.63;;;;;;;11.56;69.30;103191.78;4995596;28;20061;-72
2023/05/26 07:54:22;;;;;;;17.95;3.35;;;;;;;11.61;68.39;103183.00;4989507;28;20109;-71
2023/05/26 07:56:48;;;;;;;20.38;3.78;;;;;;;11.63;69.27;103180.38;4996079;28;20040;-72
2023/05/26 07:59:15;;;;;;;21.02;4.13;;;;;;;11.68;69.09;103184.69;4991033;28;20484;-72
2023/05/26 08:01:40;;;;;;;18.73;3.63;;;;;;;11.70;68.51;103195.19;4995603;28;20101;-72
2023/05/26 08:04:06;;;;;;;18.48;3.63;;;;;;;11.63;67.74;103185.63;4995608;28;20269;-72
2023/05/26 08:06:31;;;;;;;18.77;3.70;;;;;;;11.65;68.05;103191.72;4996703;28;20042;-72
2023/05/26 08:08:57;;;;;;;19.13;3.92;;;;;;;11.73;68.70;103197.78;4994478;28;20631;-72
2023/05/26 08:11:25;;;;;;;18.27;3.40;;;;;;;11.79;67.30;103186.34;4993461;28;20065;-72
2023/05/26 08:13:51;;;;;;;18.55;3.72;;;;;;;11.81;66.84;103185.47;4996504;28;20034;-72
2023/05/26 08:16:16;;;;;;;16.48;3.55;;;;;;;11.86;67.28;103188.03;4991788;28;20210;-72
2023/05/26 08:18:42;;;;;;;10.90;3.17;;;;;;;11.94;68.20;103190.66;4996732;28;20145;-72
2023/05/26 08:21:07;;;;;;;33.00;3.85;;;;;;;11.98;68.47;103180.09;4996144;28;20045;-72
2023/05/26 08:23:33;;;;;;;26.85;4.13;;;;;;;12.05;67.52;103170.41;4996895;28;20228;-72
2023/05/26 08:25:58;;;;;;;18.90;4.20;;;;;;;12.10;67.51;103181.75;4996237;28;20284;-72
2023/05/26 08:28:24;;;;;;;17.35;3.75;;;;;;;12.10;67.47;103176.50;4992953;28;20097;-71
2023/05/26 08:30:50;;;;;;;23.30;4.43;;;;;;;12.16;67.24;103184.31;4996598;28;20027;-72
2023/05/26 08:33:15;;;;;;;16.00;3.47;;;;;;;12.14;66.70;103177.34;4997177;28;20305;-71
2023/05/26 08:35:41;;;;;;;22.48;4.47;;;;;;;12.14;66.91;103179.97;4996673;28;20093;-71
2023/05/26 08:38:06;;;;;;;22.45;3.53;;;;;;;12.21;68.00;103190.38;4996559;28;20038;-72
2023/05/26 08:40:33;;;;;;;19.45;4.10;;;;;;;12.25;67.76;103181.56;5000381;28;20030;-72
2023/05/26 08:43:05;;;;;;;15.32;4.07;;;;;;;12.28;68.58;103183.31;4998581;28;20088;-72
2023/05/26 08:45:32;;;;;;;21.17;4.22;;;;;;;12.34;69.02;103179.75;5000298;28;20101;-72
2023/05/26 08:48:00;;;;;;;25.02;4.25;;;;;;;12.43;69.01;103195.41;4999749;28;20037;-72
2023/05/26 08:50:31;;;;;;;22.40;4.43;;;;;;;12.49;68.48;103188.31;5000341;28;20038;-72
2023/05/26 08:52:59;;;;;;;19.80;4.95;;;;;;;12.52;67.60;103190.06;4999582;28;20356;-72
2023/05/26 08:55:24;;;;;;;20.37;3.40;;;;;;;12.54;67.27;103179.53;4999896;28;20034;-72
2023/05/26 08:57:52;;;;;;;29.80;5.43;;;;;;;12.52;66.24;103176.91;4999373;28;20085;-72
2023/05/26 09:00:18;;;;;;;25.35;4.07;;;;;;;12.57;66.25;103185.63;4999611;28;20046;-72
2023/05/26 09:02:44;;;;;;;19.75;3.92;;;;;;;12.69;64.69;103181.97;4999378;28;20091;-71
2023/05/26 09:05:10;;;;;;;17.30;3.20;;;;;;;12.73;64.87;103185.44;4997183;28;20042;-71
2023/05/26 09:07:35;;;;;;;18.27;3.95;;;;;;;12.83;65.27;103184.44;4998373;28;20042;-72
2023/05/26 09:10:19;;;;;;;20.00;3.42;;;;;;;12.87;66.50;103188.75;4993862;28;20148;-72
2023/05/26 09:12:45;;;;;;;16.70;3.38;;;;;;;12.87;63.39;103191.38;4989799;28;20117;-72
2023/05/26 09:15:10;;;;;;;20.15;3.83;;;;;;;12.87;61.94;103187.00;4995509;28;20380;-72
2023/05/26 09:17:36;;;;;;;15.32;3.83;;;;;;;12.91;62.42;103197.47;4996290;28;20148;-72
2023/05/26 09:20:01;;;;;;;15.52;3.90;;;;;;;12.87;61.99;103188.75;4998262;28;20081;-72
2023/05/26 09:22:33;;;;;;;16.88;4.30;;;;;;;12.91;63.57;103192.22;4996650;28;20330;-72
2023/05/26 09:24:59;;;;;;;21.27;3.63;;;;;;;13.00;62.41;103192.09;4994866;28;20050;-72
2023/05/26 09:27:24;;;;;;;22.85;4.88;;;;;;;13.02;62.53;103198.19;4995175;28;20105;-72
2023/05/26 09:29:52;;;;;;;16.67;2.97;;;;;;;13.06;61.76;103195.53;4997886;28;20045;-72
2023/05/26 09:32:17;;;;;;;13.18;3.30;;;;;;;13.06;62.24;103192.88;4995553;28;20073;-72
2023/05/26 09:34:43;;;;;;;16.00;3.10;;;;;;;13.12;61.09;103181.41;4993821;28;20085;-72
2023/05/26 09:37:09;;;;;;;13.07;3.17;;;;;;;13.22;61.74;103180.41;4998691;28;20042;-72
2023/05/26 09:39:35;;;;;;;24.17;4.10;;;;;;;13.29;62.26;103191.69;4991193;28;20058;-72
2023/05/26 09:42:08;;;;;;;16.80;3.42;;;;;;;13.30;60.34;103185.53;4995410;28;20054;-72
2023/05/26 09:44:34;;;;;;;16.88;4.07;;;;;;;13.31;60.74;103182.03;4991001;28;20358;-72
2023/05/26 09:46:59;;;;;;;10.65;3.72;;;;;;;13.36;61.54;103187.25;4994036;28;20042;-72
2023/05/26 09:49:25;;;;;;;18.00;4.00;;;;;;;13.46;62.67;103182.69;4991532;28;20355;-72
2023/05/26 09:51:51;;;;;;;19.45;3.45;;;;;;;13.49;62.02;103188.78;4995848;28;20293;-72
2023/05/26 09:54:17;;;;;;;19.13;3.70;;;;;;;13.53;61.82;103187.84;4996579;28;20057;-72
2023/05/26 09:56:56;;;;;;;13.98;3.63;;;;;;;13.62;60.76;103182.44;4998733;28;20088;-72
2023/05/26 09:59:26;;;;;;;15.10;3.20;;;;;;;13.67;61.15;103176.22;4993229;28;20038;-72
2023/05/26 10:01:53;;;;;;;20.20;3.80;;;;;;;13.74;61.21;103178.72;4993129;28;20034;-72
2023/05/26 10:04:19;;;;;;;15.20;3.45;;;;;;;13.82;63.77;103179.50;4997112;28;20245;-72
2023/05/26 10:06:47;;;;;;;17.65;3.90;;;;;;;13.83;59.71;103181.22;4994863;28;20245;-72
2023/05/26 10:09:13;;;;;;;21.53;3.93;;;;;;;13.82;60.22;103181.22;4997103;28;20245;-72
2023/05/26 10:11:43;;;;;;;20.20;4.30;;;;;;;13.83;60.93;103172.44;4989128;28;20427;-72
2023/05/26 10:14:09;;;;;;;18.02;3.83;;;;;;;13.88;61.75;103173.25;4991309;28;20034;-72
2023/05/26 10:16:36;;;;;;;17.30;4.03;;;;;;;13.97;61.17;103167.81;4999356;28;20058;-72
2023/05/26 10:19:02;;;;;;;20.35;4.43;;;;;;;14.05;61.68;103172.94;5000611;28;20034;-72
2023/05/26 10:21:33;;;;;;;18.02;3.95;;;;;;;14.09;61.02;103174.59;4999404;28;20087;-72
2023/05/26 10:24:25;;;;;;;19.05;4.32;;;;;;;14.13;62.04;103167.50;4998330;28;20030;-72
2023/05/26 10:26:56;;;;;;;18.77;3.72;;;;;;;14.15;62.74;103163.97;4991970;28;20038;-72
2023/05/26 10:29:30;;;;;;;13.60;3.67;;;;;;;14.19;62.14;103170.06;4997817;28;20042;-72
2023/05/26 10:31:55;;;;;;;14.23;3.60;;;;;;;14.19;62.78;103151.59;4990923;28;20331;-72
2023/05/26 10:34:45;;;;;;;19.75;3.55;;;;;;;14.18;59.59;103168.31;4991638;28;20240;-72
2023/05/26 10:37:15;;;;;;;12.68;3.70;;;;;;;14.18;60.05;103160.41;4993974;28;20049;-72
2023/05/26 10:39:41;;;;;;;22.05;3.65;;;;;;;14.23;60.24;103155.91;4992581;28;20031;-72
2023/05/26 10:42:17;;;;;;;16.40;3.65;;;;;;;14.25;58.59;103175.19;4987232;28;20053;-72
2023/05/26 10:44:54;;;;;;;13.98;3.53;;;;;;;14.25;58.30;103167.28;4991166;28;20126;-72
2023/05/26 10:47:20;;;;;;;13.07;3.72;;;;;;;14.26;56.89;103174.31;4993197;28;20453;-72
2023/05/26 10:49:56;;;;;;;18.88;4.20;;;;;;;14.27;57.89;103168.13;4991596;28;20085;-72
2023/05/26 10:52:23;;;;;;;21.17;4.72;;;;;;;14.29;56.98;103170.72;4991513;28;20042;-72
2023/05/26 10:54:50;;;;;;;15.68;3.75;;;;;;;14.25;55.15;103180.47;4989363;28;20077;-72
2023/05/26 10:57:30;;;;;;;22.98;4.15;;;;;;;14.23;57.61;103174.34;4991771;28;20046;-72
2023/05/26 10:59:56;;;;;;;21.10;4.07;;;;;;;14.25;57.69;103167.28;4991782;28;20034;-72
2023/05/26 11:02:21;;;;;;;22.33;4.93;;;;;;;14.33;57.35;103167.13;4990568;28;20097;-72
2023/05/26 11:04:49;;;;;;;14.90;3.95;;;;;;;14.41;57.91;103152.06;4991118;28;20114;-72
2023/05/26 11:07:32;;;;;;;12.45;3.78;;;;;;;14.51;57.89;103163.25;4990639;28;20408;-72
2023/05/26 11:10:07;;;;;;;13.80;3.75;;;;;;;14.52;58.11;103157.97;4993281;28;20056;-72
2023/05/26 11:12:46;;;;;;;14.55;3.55;;;;;;;14.57;57.02;103158.78;4993094;28;20030;-72
2023/05/26 11:15:28;;;;;;;16.98;3.97;;;;;;;14.57;56.17;103156.16;4992059;28;20301;-72
2023/05/26 11:18:02;;;;;;;21.33;4.05;;;;;;;14.57;54.23;103168.41;4994347;28;20050;-72
2023/05/26 11:20:27;;;;;;;18.50;4.18;;;;;;;14.57;55.90;103160.50;4996385;28;20105;-72
2023/05/26 11:22:53;;;;;;;15.80;3.58;;;;;;;14.57;57.24;103157.84;4990599;28;20038;-72